createdAt,value
2023-02-05T00:01:20.690Z,100.00
2023-02-05T00:05:23.527Z,100.00
2023-02-05T00:09:28.324Z,100.00
2023-02-05T00:13:32.401Z,100.00
2023-02-05T00:17:37.029Z,100.00
2023-02-05T00:21:39.829Z,100.00
2023-02-05T00:25:42.561Z,100.00
2023-02-05T00:29:46.702Z,100.00
2023-02-05T00:33:50.534Z,100.00
2023-02-05T00:37:54.331Z,100.00
2023-02-05T00:41:57.056Z,100.00
2023-02-05T00:46:01.930Z,100.00
2023-02-05T00:50:05.536Z,100.00
2023-02-05T00:54:08.444Z,100.00
2023-02-05T00:58:12.018Z,100.00
2023-02-05T01:02:17.317Z,100.00
2023-02-05T01:06:20.911Z,100.00
2023-02-05T01:10:23.777Z,100.00
2023-02-05T01:14:26.530Z,100.00
2023-02-05T01:18:31.076Z,100.00
2023-02-05T01:22:34.193Z,100.00
2023-02-05T01:26:36.975Z,100.00
2023-02-05T01:30:39.952Z,100.00
2023-02-05T01:34:44.333Z,100.00
2023-02-05T01:38:49.173Z,100.00
2023-02-05T01:42:52.114Z,100.00
2023-02-05T01:46:56.229Z,100.00
2023-02-05T01:51:05.214Z,100.00
2023-02-05T01:55:09.953Z,100.00
2023-02-05T01:59:16.958Z,100.00
2023-02-05T02:03:20.065Z,100.00
2023-02-05T02:07:25.891Z,100.00
2023-02-05T02:11:31.480Z,100.00
2023-02-05T02:15:34.977Z,100.00
2023-02-05T02:19:45.109Z,100.00
2023-02-05T02:24:02.528Z,100.00
2023-02-05T02:28:11.973Z,100.00
2023-02-05T02:32:19.349Z,100.00
2023-02-05T02:36:29.006Z,100.00
2023-02-05T02:40:38.871Z,100.00
2023-02-05T02:44:49.438Z,100.00
2023-02-05T02:48:57.305Z,100.00
2023-02-05T02:53:04.254Z,100.00
2023-02-05T02:57:09.560Z,100.00
2023-02-05T03:01:15.934Z,100.00
2023-02-05T03:05:23.179Z,100.00
2023-02-05T03:09:31.202Z,100.00
2023-02-05T03:13:34.178Z,100.00
2023-02-05T03:17:41.800Z,100.00
2023-02-05T03:21:48.527Z,100.00
2023-02-05T03:25:52.767Z,100.00
2023-02-05T03:30:00.682Z,100.00
2023-02-05T03:34:13.210Z,100.00
2023-02-05T03:38:39.831Z,100.00
2023-02-05T03:42:54.000Z,100.00
2023-02-05T03:47:03.446Z,100.00
2023-02-05T03:51:22.554Z,100.00
2023-02-05T03:55:33.042Z,100.00
2023-02-05T03:59:37.624Z,100.00
2023-02-05T04:03:41.968Z,100.00
2023-02-05T04:07:47.627Z,100.00
2023-02-05T04:11:50.834Z,100.00
2023-02-05T04:15:56.782Z,100.00
2023-02-05T04:20:00.076Z,100.00
2023-02-05T04:24:05.222Z,100.00
2023-02-05T04:28:10.584Z,100.00
2023-02-05T04:32:14.197Z,100.00
2023-02-05T04:36:17.149Z,100.00
2023-02-05T04:40:21.569Z,100.00
2023-02-05T04:44:24.276Z,100.00
2023-02-05T04:48:27.315Z,100.00
2023-02-05T04:52:32.526Z,100.00
2023-02-05T04:56:36.593Z,100.00
2023-02-05T05:00:39.332Z,100.00
2023-02-05T05:04:43.252Z,100.00
2023-02-05T05:08:46.488Z,100.00
2023-02-05T05:12:51.056Z,100.00
2023-02-05T05:16:53.811Z,100.00
2023-02-05T05:20:56.510Z,100.00
2023-02-05T05:24:59.205Z,100.00
2023-02-05T05:29:03.269Z,100.00
2023-02-05T05:33:06.309Z,100.00
2023-02-05T05:37:10.624Z,100.00
2023-02-05T05:41:37.617Z,100.00
2023-02-05T05:45:41.745Z,100.00
2023-02-05T05:49:44.600Z,100.00
2023-02-05T05:53:48.641Z,100.00
2023-02-05T05:57:51.416Z,100.00
2023-02-05T06:01:55.508Z,100.00
2023-02-05T06:05:58.395Z,100.00
2023-02-05T06:10:01.145Z,100.00
2023-02-05T06:14:03.981Z,100.00
2023-02-05T06:18:09.282Z,100.00
2023-02-05T06:22:12.050Z,100.00
2023-02-05T06:26:16.088Z,100.00
2023-02-05T06:30:19.167Z,100.00
2023-02-05T06:34:23.276Z,100.00
2023-02-05T06:38:26.010Z,100.00
2023-02-05T06:42:28.770Z,100.00
2023-02-05T06:46:31.633Z,100.00
2023-02-05T06:50:35.712Z,100.00
2023-02-05T06:54:38.870Z,100.00
2023-02-05T06:58:42.554Z,100.00
2023-02-05T07:02:46.512Z,100.00
2023-02-05T07:06:50.605Z,100.00
2023-02-05T07:10:53.349Z,100.00
2023-02-05T07:14:56.219Z,100.00
2023-02-05T07:18:59.083Z,100.00
2023-02-05T07:23:03.170Z,100.00
2023-02-05T07:27:05.896Z,100.00
2023-02-05T07:31:10.489Z,100.00
2023-02-05T07:35:13.318Z,100.00
2023-02-05T07:39:18.468Z,100.00
2023-02-05T07:43:24.908Z,100.00
2023-02-05T07:47:28.254Z,100.00
2023-02-05T07:51:31.177Z,100.00
2023-02-05T07:55:36.070Z,100.00
2023-02-05T07:59:38.965Z,100.00
2023-02-05T08:03:46.842Z,100.00
2023-02-05T08:07:49.987Z,100.00
2023-02-05T08:11:54.280Z,100.00
2023-02-05T08:15:57.093Z,100.00
2023-02-05T08:20:06.903Z,100.00
2023-02-05T08:24:10.405Z,100.00
2023-02-05T08:28:14.633Z,100.00
2023-02-05T08:32:17.426Z,100.00
2023-02-05T08:36:20.138Z,100.00
2023-02-05T08:53:27.329Z,100.00
2023-02-05T08:57:30.386Z,100.00
2023-02-05T09:01:33.158Z,100.00
2023-02-05T09:05:36.213Z,100.00
2023-02-05T09:09:40.466Z,100.00
2023-02-05T09:13:43.200Z,100.00
2023-02-05T09:17:46.241Z,100.00
2023-02-05T09:21:48.965Z,100.00
2023-02-05T09:25:53.170Z,100.00
2023-02-05T09:29:55.890Z,100.00
2023-02-05T09:33:58.763Z,100.00
2023-02-05T09:38:03.285Z,100.00
2023-02-05T09:42:17.114Z,100.00
2023-02-05T09:46:28.823Z,100.00
2023-02-05T09:50:32.046Z,100.00
2023-02-05T09:54:39.992Z,100.00
2023-02-05T09:58:47.337Z,100.00
2023-02-05T10:02:56.542Z,100.00
2023-02-05T10:07:14.784Z,100.00
2023-02-05T10:11:25.222Z,100.00
2023-02-05T10:15:46.142Z,100.00
2023-02-05T10:20:03.561Z,100.00
2023-02-05T10:24:31.688Z,100.00
2023-02-05T10:29:14.765Z,100.00
2023-02-05T10:33:29.130Z,100.00
2023-02-05T10:37:40.375Z,100.00
2023-02-05T10:41:47.946Z,100.00
2023-02-05T10:45:52.285Z,100.00
2023-02-05T10:50:02.122Z,100.00
2023-02-05T10:54:05.238Z,100.00
2023-02-05T10:58:36.731Z,100.00
2023-02-05T11:02:42.759Z,100.00
2023-02-05T11:06:50.511Z,100.00
2023-02-05T11:10:54.560Z,100.00
2023-02-05T11:14:59.826Z,100.00
2023-02-05T11:19:03.076Z,100.00
2023-02-05T11:23:10.322Z,100.00
2023-02-05T11:27:31.094Z,100.00
2023-02-05T11:31:36.481Z,100.00
2023-02-05T11:35:39.302Z,100.00
2023-02-05T11:39:45.116Z,100.00
2023-02-05T11:43:51.954Z,100.00
2023-02-05T11:47:55.230Z,100.00
2023-02-05T11:51:58.710Z,100.00
2023-02-05T11:56:22.009Z,100.00
2023-02-05T12:00:26.845Z,100.00
2023-02-05T12:04:48.189Z,100.00
2023-02-05T12:08:53.043Z,100.00
2023-02-05T12:13:06.187Z,100.00
2023-02-05T12:17:26.669Z,100.00
2023-02-05T12:21:41.443Z,100.00
2023-02-05T12:25:56.082Z,100.00
2023-02-05T12:30:12.562Z,100.00
2023-02-05T12:34:27.717Z,100.00
2023-02-05T12:38:48.871Z,100.00
2023-02-05T12:42:59.229Z,100.00
2023-02-05T12:47:15.552Z,100.00
2023-02-05T12:51:43.846Z,100.00
2023-02-05T12:56:05.140Z,100.00
2023-02-05T13:00:14.505Z,100.00
2023-02-05T13:04:26.046Z,100.00
2023-02-05T13:08:40.541Z,100.00
2023-02-05T13:12:48.355Z,100.00
2023-02-05T13:16:55.152Z,100.00
2023-02-05T13:21:22.219Z,100.00
2023-02-05T13:25:48.018Z,100.00
2023-02-05T13:29:53.936Z,100.00
2023-02-05T13:34:01.883Z,100.00
2023-02-05T13:38:23.733Z,99.72
2023-02-05T13:42:49.079Z,100.00
2023-02-05T13:47:18.038Z,99.93
2023-02-05T13:51:42.990Z,100.00
2023-02-05T13:56:10.354Z,99.83
2023-02-05T14:00:15.900Z,100.00
2023-02-05T14:04:24.007Z,98.07
2023-02-05T14:08:32.778Z,98.73
2023-02-05T14:12:39.273Z,98.62
2023-02-05T14:16:42.083Z,96.45
2023-02-05T14:20:45.638Z,95.85
2023-02-05T14:24:49.367Z,96.97
2023-02-05T14:28:54.086Z,96.21
2023-02-05T14:32:58.390Z,95.89
2023-02-05T14:37:01.445Z,96.02
2023-02-05T14:41:12.632Z,96.20
2023-02-05T14:45:19.050Z,96.56
2023-02-05T14:49:24.852Z,96.58
2023-02-05T14:53:29.595Z,97.35
2023-02-05T14:57:42.697Z,96.73
2023-02-05T15:01:50.100Z,96.75
2023-02-05T15:05:58.719Z,98.08
2023-02-05T15:10:04.746Z,97.77
2023-02-05T15:14:33.026Z,97.82
2023-02-05T15:18:41.282Z,97.79
2023-02-05T15:22:50.318Z,97.01
2023-02-05T15:26:57.372Z,96.01
2023-02-05T15:31:18.229Z,96.79
2023-02-05T15:35:24.982Z,97.88
2023-02-05T15:39:33.164Z,98.26
2023-02-05T15:43:35.940Z,98.18
2023-02-05T15:47:38.931Z,98.23
2023-02-05T15:51:43.407Z,98.04
2023-02-05T15:55:49.332Z,97.54
2023-02-05T15:59:53.996Z,97.19
2023-02-05T16:03:56.960Z,96.53
2023-02-05T16:08:02.964Z,96.95
2023-02-05T16:12:12.938Z,96.17
2023-02-05T16:16:24.216Z,95.42
2023-02-05T16:20:30.640Z,94.81
2023-02-05T16:24:39.065Z,94.78
2023-02-05T16:28:46.440Z,96.23
2023-02-05T16:32:49.899Z,96.97
2023-02-05T16:36:53.471Z,97.37
2023-02-05T16:41:01.191Z,97.62
2023-02-05T16:45:15.038Z,97.65
2023-02-05T16:49:31.105Z,98.51
2023-02-05T16:53:37.976Z,98.96
2023-02-05T16:57:42.480Z,99.81
2023-02-05T17:01:45.836Z,99.94
2023-02-05T17:05:56.299Z,100.00
2023-02-05T17:10:18.461Z,100.00
2023-02-05T17:14:31.142Z,100.00
2023-02-05T17:18:34.587Z,100.00
2023-02-05T17:22:37.665Z,100.00
2023-02-05T17:26:42.921Z,100.00
2023-02-05T17:30:49.232Z,100.00
2023-02-05T17:34:52.109Z,100.00
2023-02-05T17:38:55.247Z,100.00
2023-02-05T17:42:58.254Z,100.00
2023-02-05T17:47:02.800Z,99.87
2023-02-05T17:51:05.864Z,99.83
2023-02-05T17:55:14.277Z,100.00
2023-02-05T17:59:19.300Z,100.00
2023-02-05T18:03:23.614Z,100.00
2023-02-05T18:07:31.022Z,100.00
2023-02-05T18:11:34.069Z,100.00
2023-02-05T18:15:36.976Z,100.00
2023-02-05T18:19:41.201Z,100.00
2023-02-05T18:23:44.068Z,100.00
2023-02-05T18:27:47.979Z,100.00
2023-02-05T18:31:50.972Z,100.00
2023-02-05T18:35:55.615Z,100.00
2023-02-05T18:39:58.473Z,100.00
2023-02-05T18:44:01.343Z,100.00
2023-02-05T18:48:04.213Z,100.00
2023-02-05T18:52:09.243Z,100.00
2023-02-05T18:56:14.578Z,100.00
2023-02-05T19:00:17.733Z,100.00
2023-02-05T19:04:21.654Z,100.00
2023-02-05T19:08:25.881Z,100.00
2023-02-05T19:12:29.578Z,100.00
2023-02-05T19:16:34.379Z,100.00
2023-02-05T19:20:37.338Z,100.00
2023-02-05T19:24:43.036Z,100.00
2023-02-05T19:28:47.680Z,100.00
2023-02-05T19:32:50.548Z,100.00
2023-02-05T19:36:53.359Z,100.00
2023-02-05T19:40:57.563Z,100.00
2023-02-05T19:45:00.346Z,100.00
2023-02-05T19:49:04.904Z,100.00
2023-02-05T19:53:08.026Z,100.00
2023-02-05T19:57:12.249Z,100.00
2023-02-05T20:01:15.854Z,100.00
2023-02-05T20:05:18.922Z,100.00
2023-02-05T20:09:21.890Z,100.00
2023-02-05T20:13:28.972Z,100.00
2023-02-05T20:17:31.848Z,100.00
2023-02-05T20:21:35.019Z,100.00
2023-02-05T20:25:37.845Z,100.00
2023-02-05T20:29:59.475Z,100.00
2023-02-05T20:34:02.944Z,100.00
2023-02-05T20:38:05.865Z,100.00
2023-02-05T20:42:10.471Z,100.00
2023-02-05T20:46:14.617Z,100.00
2023-02-05T20:50:17.681Z,100.00
2023-02-05T20:54:20.519Z,100.00
2023-02-05T20:58:23.410Z,100.00
2023-02-05T21:02:28.008Z,100.00
2023-02-05T21:06:33.015Z,100.00
2023-02-05T21:10:36.143Z,100.00
2023-02-05T21:14:39.393Z,100.00
2023-02-05T21:18:44.985Z,100.00
2023-02-05T21:22:47.810Z,100.00
2023-02-05T21:26:51.859Z,100.00
2023-02-05T21:31:01.869Z,100.00
2023-02-05T21:35:06.660Z,100.00
2023-02-05T21:39:11.032Z,100.00
2023-02-05T21:43:14.056Z,100.00
2023-02-05T21:47:16.929Z,100.00
2023-02-05T21:51:23.161Z,100.00
2023-02-05T21:55:26.819Z,100.00
2023-02-05T21:59:29.683Z,100.00
2023-02-05T22:03:32.441Z,100.00
2023-02-05T22:07:36.592Z,100.00
2023-02-05T22:11:40.417Z,100.00
2023-02-05T22:15:43.284Z,100.00
2023-02-05T22:19:46.103Z,100.00
2023-02-05T22:23:53.365Z,100.00
2023-02-05T22:27:56.491Z,100.00
2023-02-05T22:31:59.362Z,100.00
2023-02-05T22:36:02.414Z,100.00
2023-02-05T22:40:08.008Z,100.00
2023-02-05T22:44:12.299Z,100.00
2023-02-05T22:48:15.343Z,100.00
2023-02-05T22:52:18.167Z,100.00
2023-02-05T22:56:22.727Z,100.00
2023-02-05T23:00:25.699Z,100.00
2023-02-05T23:04:28.563Z,100.00
2023-02-05T23:08:31.440Z,100.00
2023-02-05T23:12:35.627Z,100.00
2023-02-05T23:16:41.174Z,100.00
2023-02-05T23:20:44.014Z,100.00
2023-02-05T23:24:47.066Z,100.00
2023-02-05T23:28:54.823Z,100.00
2023-02-05T23:32:57.695Z,100.00
2023-02-05T23:37:00.476Z,100.00
2023-02-05T23:41:03.660Z,100.00
2023-02-05T23:45:08.594Z,100.00
2023-02-05T23:49:11.652Z,100.00
2023-02-05T23:53:14.497Z,100.00
2023-02-05T23:57:17.279Z,100.00
